sensor_id;sensor_type;location;lat;lon;timestamp;temperature;humidity
19152;DHT22;9708;53.114;9.388;2022-09-25T00:00:47;13.50;99.90
19152;DHT22;9708;53.114;9.388;2022-09-25T00:03:17;13.60;99.90
19152;DHT22;9708;53.114;9.388;2022-09-25T00:05:46;13.50;99.90
19152;DHT22;9708;53.114;9.388;2022-09-25T00:08:13;13.50;99.90
19152;DHT22;9708;53.114;9.388;2022-09-25T00:10:42;13.50;99.90
19152;DHT22;9708;53.114;9.388;2022-09-25T00:13:09;13.50;99.90
19152;DHT22;9708;53.114;9.388;2022-09-25T00:15:36;13.50;99.90
19152;DHT22;9708;53.114;9.388;2022-09-25T00:18:03;13.50;99.90
19152;DHT22;9708;53.114;9.388;2022-09-25T00:20:31;13.50;99.90
19152;DHT22;9708;53.114;9.388;2022-09-25T00:22:57;13.50;99.90
19152;DHT22;9708;53.114;9.388;2022-09-25T00:25:24;13.50;99.90
19152;DHT22;9708;53.114;9.388;2022-09-25T00:27:54;13.50;99.90
19152;DHT22;9708;53.114;9.388;2022-09-25T00:30:21;13.50;99.90
19152;DHT22;9708;53.114;9.388;2022-09-25T00:32:48;13.50;99.90
19152;DHT22;9708;53.114;9.388;2022-09-25T00:35:15;13.50;99.90
19152;DHT22;9708;53.114;9.388;2022-09-25T00:37:43;13.50;99.90
19152;DHT22;9708;53.114;9.388;2022-09-25T00:40:10;13.50;99.90
19152;DHT22;9708;53.114;9.388;2022-09-25T00:42:37;13.50;99.90
19152;DHT22;9708;53.114;9.388;2022-09-25T00:45:05;13.50;99.90
19152;DHT22;9708;53.114;9.388;2022-09-25T00:47:52;13.50;99.90
19152;DHT22;9708;53.114;9.388;2022-09-25T00:50:31;13.40;99.90
19152;DHT22;9708;53.114;9.388;2022-09-25T00:53:06;13.50;99.90
19152;DHT22;9708;53.114;9.388;2022-09-25T00:55:36;13.40;99.90
19152;DHT22;9708;53.114;9.388;2022-09-25T00:58:04;13.40;99.90
19152;DHT22;9708;53.114;9.388;2022-09-25T01:00:32;13.30;99.90
19152;DHT22;9708;53.114;9.388;2022-09-25T01:02:59;13.30;99.90
19152;DHT22;9708;53.114;9.388;2022-09-25T01:05:29;13.30;99.90
19152;DHT22;9708;53.114;9.388;2022-09-25T01:07:59;13.30;99.90
19152;DHT22;9708;53.114;9.388;2022-09-25T01:10:28;13.30;99.90
19152;DHT22;9708;53.114;9.388;2022-09-25T01:12:55;13.30;99.90
19152;DHT22;9708;53.114;9.388;2022-09-25T01:15:29;13.30;99.90
19152;DHT22;9708;53.114;9.388;2022-09-25T01:18:04;13.30;99.90
19152;DHT22;9708;53.114;9.388;2022-09-25T01:20:45;13.30;99.90
19152;DHT22;9708;53.114;9.388;2022-09-25T01:23:22;13.30;99.90
19152;DHT22;9708;53.114;9.388;2022-09-25T01:26:08;13.20;99.90
19152;DHT22;9708;53.114;9.388;2022-09-25T01:29:03;13.30;99.90
19152;DHT22;9708;53.114;9.388;2022-09-25T01:31:35;13.20;99.90
19152;DHT22;9708;53.114;9.388;2022-09-25T01:34:12;13.10;99.90
19152;DHT22;9708;53.114;9.388;2022-09-25T01:36:46;13.20;99.90
19152;DHT22;9708;53.114;9.388;2022-09-25T01:39:18;13.20;99.90
19152;DHT22;9708;53.114;9.388;2022-09-25T01:41:49;13.20;99.90
19152;DHT22;9708;53.114;9.388;2022-09-25T01:44:22;13.20;99.90
19152;DHT22;9708;53.114;9.388;2022-09-25T01:46:54;13.10;99.90
19152;DHT22;9708;53.114;9.388;2022-09-25T01:49:27;13.10;99.90
19152;DHT22;9708;53.114;9.388;2022-09-25T01:51:55;13.10;99.90
19152;DHT22;9708;53.114;9.388;2022-09-25T01:54:27;13.10;99.90
19152;DHT22;9708;53.114;9.388;2022-09-25T01:56:57;13.10;99.90
19152;DHT22;9708;53.114;9.388;2022-09-25T01:59:32;13.10;99.90
19152;DHT22;9708;53.114;9.388;2022-09-25T02:02:04;13.10;99.90
19152;DHT22;9708;53.114;9.388;2022-09-25T02:04:35;13.00;99.90
19152;DHT22;9708;53.114;9.388;2022-09-25T02:07:06;13.10;99.90
19152;DHT22;9708;53.114;9.388;2022-09-25T02:09:38;13.10;99.90
19152;DHT22;9708;53.114;9.388;2022-09-25T02:12:08;13.10;99.90
19152;DHT22;9708;53.114;9.388;2022-09-25T02:14:40;13.10;99.90
19152;DHT22;9708;53.114;9.388;2022-09-25T02:17:14;13.00;99.90
19152;DHT22;9708;53.114;9.388;2022-09-25T02:20:04;13.00;99.90
19152;DHT22;9708;53.114;9.388;2022-09-25T02:22:51;12.90;99.90
19152;DHT22;9708;53.114;9.388;2022-09-25T02:25:24;13.00;99.90
19152;DHT22;9708;53.114;9.388;2022-09-25T02:27:52;13.00;99.90
19152;DHT22;9708;53.114;9.388;2022-09-25T02:30:20;13.00;99.90
19152;DHT22;9708;53.114;9.388;2022-09-25T02:32:47;13.00;99.90
19152;DHT22;9708;53.114;9.388;2022-09-25T02:35:14;13.00;99.90
19152;DHT22;9708;53.114;9.388;2022-09-25T02:37:41;13.00;99.90
19152;DHT22;9708;53.114;9.388;2022-09-25T02:40:08;13.00;99.90
19152;DHT22;9708;53.114;9.388;2022-09-25T02:42:41;12.90;99.90
19152;DHT22;9708;53.114;9.388;2022-09-25T02:45:18;12.90;99.90
19152;DHT22;9708;53.114;9.388;2022-09-25T02:47:58;12.90;99.90
19152;DHT22;9708;53.114;9.388;2022-09-25T02:50:33;12.90;99.90
19152;DHT22;9708;53.114;9.388;2022-09-25T02:53:06;12.90;99.90
19152;DHT22;9708;53.114;9.388;2022-09-25T02:55:38;12.80;99.90
19152;DHT22;9708;53.114;9.388;2022-09-25T02:58:10;12.80;99.90
19152;DHT22;9708;53.114;9.388;2022-09-25T03:00:41;12.80;99.90
19152;DHT22;9708;53.114;9.388;2022-09-25T03:03:12;12.90;99.90
19152;DHT22;9708;53.114;9.388;2022-09-25T03:05:40;12.90;99.90
19152;DHT22;9708;53.114;9.388;2022-09-25T03:08:08;12.90;99.90
19152;DHT22;9708;53.114;9.388;2022-09-25T03:10:52;13.00;99.90
19152;DHT22;9708;53.114;9.388;2022-09-25T03:13:21;12.90;99.90
19152;DHT22;9708;53.114;9.388;2022-09-25T03:15:54;12.80;99.90
19152;DHT22;9708;53.114;9.388;2022-09-25T03:18:25;12.80;99.90
19152;DHT22;9708;53.114;9.388;2022-09-25T03:20:53;12.80;99.90
19152;DHT22;9708;53.114;9.388;2022-09-25T03:23:19;12.80;99.90
19152;DHT22;9708;53.114;9.388;2022-09-25T03:25:46;12.80;99.90
19152;DHT22;9708;53.114;9.388;2022-09-25T03:28:13;12.80;99.90
19152;DHT22;9708;53.114;9.388;2022-09-25T03:30:40;12.70;99.90
19152;DHT22;9708;53.114;9.388;2022-09-25T03:33:07;12.70;99.90
19152;DHT22;9708;53.114;9.388;2022-09-25T03:35:36;12.70;99.90
19152;DHT22;9708;53.114;9.388;2022-09-25T03:38:03;12.70;99.90
19152;DHT22;9708;53.114;9.388;2022-09-25T03:40:30;12.70;99.90
19152;DHT22;9708;53.114;9.388;2022-09-25T03:42:57;12.70;99.90
19152;DHT22;9708;53.114;9.388;2022-09-25T03:45:24;12.70;99.90
19152;DHT22;9708;53.114;9.388;2022-09-25T03:47:51;12.70;99.90
19152;DHT22;9708;53.114;9.388;2022-09-25T03:50:17;12.70;99.90
19152;DHT22;9708;53.114;9.388;2022-09-25T03:52:45;12.70;99.90
19152;DHT22;9708;53.114;9.388;2022-09-25T03:55:12;12.70;99.90
19152;DHT22;9708;53.114;9.388;2022-09-25T03:57:39;12.60;99.90
19152;DHT22;9708;53.114;9.388;2022-09-25T04:00:06;12.70;99.90
19152;DHT22;9708;53.114;9.388;2022-09-25T04:02:34;12.60;99.90
19152;DHT22;9708;53.114;9.388;2022-09-25T04:05:01;12.60;99.90
19152;DHT22;9708;53.114;9.388;2022-09-25T04:07:28;12.60;99.90
19152;DHT22;9708;53.114;9.388;2022-09-25T04:09:56;12.60;99.90
19152;DHT22;9708;53.114;9.388;2022-09-25T04:12:23;12.70;99.90
19152;DHT22;9708;53.114;9.388;2022-09-25T04:14:50;12.60;99.90
19152;DHT22;9708;53.114;9.388;2022-09-25T04:17:18;12.60;99.90
19152;DHT22;9708;53.114;9.388;2022-09-25T04:19:45;12.60;99.90
19152;DHT22;9708;53.114;9.388;2022-09-25T04:22:12;12.60;99.90
19152;DHT22;9708;53.114;9.388;2022-09-25T04:24:39;12.70;99.90
19152;DHT22;9708;53.114;9.388;2022-09-25T04:27:17;12.60;99.90
19152;DHT22;9708;53.114;9.388;2022-09-25T04:29:44;12.70;99.90
19152;DHT22;9708;53.114;9.388;2022-09-25T04:32:12;12.70;99.90
19152;DHT22;9708;53.114;9.388;2022-09-25T04:34:56;12.70;99.90
19152;DHT22;9708;53.114;9.388;2022-09-25T04:37:23;12.60;99.90
19152;DHT22;9708;53.114;9.388;2022-09-25T04:39:52;12.60;99.90
19152;DHT22;9708;53.114;9.388;2022-09-25T04:42:20;12.60;99.90
19152;DHT22;9708;53.114;9.388;2022-09-25T04:44:49;12.60;99.90
19152;DHT22;9708;53.114;9.388;2022-09-25T04:47:17;12.70;99.90
19152;DHT22;9708;53.114;9.388;2022-09-25T04:49:44;12.60;99.90
19152;DHT22;9708;53.114;9.388;2022-09-25T04:52:11;12.60;99.90
19152;DHT22;9708;53.114;9.388;2022-09-25T04:54:40;12.60;99.90
19152;DHT22;9708;53.114;9.388;2022-09-25T04:57:07;12.60;99.90
19152;DHT22;9708;53.114;9.388;2022-09-25T04:59:35;12.60;99.90
19152;DHT22;9708;53.114;9.388;2022-09-25T05:02:02;12.60;99.90
19152;DHT22;9708;53.114;9.388;2022-09-25T05:04:29;12.60;99.90
19152;DHT22;9708;53.114;9.388;2022-09-25T05:06:56;12.60;99.90
19152;DHT22;9708;53.114;9.388;2022-09-25T05:09:23;12.60;99.90
19152;DHT22;9708;53.114;9.388;2022-09-25T05:11:50;12.60;99.90
19152;DHT22;9708;53.114;9.388;2022-09-25T05:14:17;12.60;99.90
19152;DHT22;9708;53.114;9.388;2022-09-25T05:16:46;12.60;99.90
19152;DHT22;9708;53.114;9.388;2022-09-25T05:19:13;12.60;99.90
19152;DHT22;9708;53.114;9.388;2022-09-25T05:21:40;12.60;99.90
19152;DHT22;9708;53.114;9.388;2022-09-25T05:24:07;12.60;99.90
19152;DHT22;9708;53.114;9.388;2022-09-25T05:26:34;12.70;99.90
19152;DHT22;9708;53.114;9.388;2022-09-25T05:29:01;12.60;99.90
19152;DHT22;9708;53.114;9.388;2022-09-25T05:31:28;12.60;99.90
19152;DHT22;9708;53.114;9.388;2022-09-25T05:33:56;12.60;99.90
19152;DHT22;9708;53.114;9.388;2022-09-25T05:36:23;12.60;99.90
19152;DHT22;9708;53.114;9.388;2022-09-25T05:38:50;12.50;99.90
19152;DHT22;9708;53.114;9.388;2022-09-25T05:41:17;12.50;99.90
19152;DHT22;9708;53.114;9.388;2022-09-25T05:43:45;12.60;99.90
19152;DHT22;9708;53.114;9.388;2022-09-25T05:46:13;12.60;99.90
19152;DHT22;9708;53.114;9.388;2022-09-25T05:48:40;12.60;99.90
19152;DHT22;9708;53.114;9.388;2022-09-25T05:51:09;12.60;99.90
19152;DHT22;9708;53.114;9.388;2022-09-25T05:53:36;12.60;99.90
19152;DHT22;9708;53.114;9.388;2022-09-25T05:56:04;12.60;99.90
19152;DHT22;9708;53.114;9.388;2022-09-25T05:58:33;12.70;99.90
19152;DHT22;9708;53.114;9.388;2022-09-25T06:01:00;12.60;99.90
19152;DHT22;9708;53.114;9.388;2022-09-25T06:03:28;12.60;99.90
19152;DHT22;9708;53.114;9.388;2022-09-25T06:05:55;12.50;99.90
19152;DHT22;9708;53.114;9.388;2022-09-25T06:08:23;12.60;99.90
19152;DHT22;9708;53.114;9.388;2022-09-25T06:10:52;12.60;99.90
19152;DHT22;9708;53.114;9.388;2022-09-25T06:13:20;12.50;99.90
19152;DHT22;9708;53.114;9.388;2022-09-25T06:15:48;12.50;99.90
19152;DHT22;9708;53.114;9.388;2022-09-25T06:18:17;12.60;99.90
19152;DHT22;9708;53.114;9.388;2022-09-25T06:20:44;12.60;99.90
19152;DHT22;9708;53.114;9.388;2022-09-25T06:23:11;12.70;99.90
19152;DHT22;9708;53.114;9.388;2022-09-25T06:25:39;12.70;99.90
19152;DHT22;9708;53.114;9.388;2022-09-25T06:28:07;12.70;99.90
19152;DHT22;9708;53.114;9.388;2022-09-25T06:30:35;12.70;99.90
19152;DHT22;9708;53.114;9.388;2022-09-25T06:33:04;12.70;99.90
19152;DHT22;9708;53.114;9.388;2022-09-25T06:35:34;12.70;99.90
19152;DHT22;9708;53.114;9.388;2022-09-25T06:38:02;12.60;99.90
19152;DHT22;9708;53.114;9.388;2022-09-25T06:40:30;12.60;99.90
19152;DHT22;9708;53.114;9.388;2022-09-25T06:42:59;12.60;99.90
19152;DHT22;9708;53.114;9.388;2022-09-25T06:45:28;12.60;99.90
19152;DHT22;9708;53.114;9.388;2022-09-25T06:47:59;12.60;99.90
19152;DHT22;9708;53.114;9.388;2022-09-25T06:50:30;12.70;99.90
19152;DHT22;9708;53.114;9.388;2022-09-25T06:52:58;12.70;99.90
19152;DHT22;9708;53.114;9.388;2022-09-25T06:55:25;12.70;99.90
19152;DHT22;9708;53.114;9.388;2022-09-25T06:57:53;12.70;99.90
19152;DHT22;9708;53.114;9.388;2022-09-25T07:00:21;12.70;99.90
19152;DHT22;9708;53.114;9.388;2022-09-25T07:02:47;12.70;99.90
19152;DHT22;9708;53.114;9.388;2022-09-25T07:05:32;12.80;99.90
19152;DHT22;9708;53.114;9.388;2022-09-25T07:07:59;12.80;99.90
19152;DHT22;9708;53.114;9.388;2022-09-25T07:10:26;12.80;99.90
19152;DHT22;9708;53.114;9.388;2022-09-25T07:12:53;12.80;99.90
19152;DHT22;9708;53.114;9.388;2022-09-25T07:15:21;12.80;99.90
19152;DHT22;9708;53.114;9.388;2022-09-25T07:17:48;12.90;99.90
19152;DHT22;9708;53.114;9.388;2022-09-25T07:20:15;12.90;99.90
19152;DHT22;9708;53.114;9.388;2022-09-25T07:22:42;12.90;99.90
19152;DHT22;9708;53.114;9.388;2022-09-25T07:25:10;12.90;99.90
19152;DHT22;9708;53.114;9.388;2022-09-25T07:27:37;12.90;99.90
19152;DHT22;9708;53.114;9.388;2022-09-25T07:30:06;12.80;99.90
19152;DHT22;9708;53.114;9.388;2022-09-25T07:32:36;12.80;99.90
19152;DHT22;9708;53.114;9.388;2022-09-25T07:35:04;12.80;99.90
19152;DHT22;9708;53.114;9.388;2022-09-25T07:37:31;12.90;99.90
19152;DHT22;9708;53.114;9.388;2022-09-25T07:39:57;12.90;99.90
19152;DHT22;9708;53.114;9.388;2022-09-25T07:42:24;13.00;99.90
19152;DHT22;9708;53.114;9.388;2022-09-25T07:44:51;13.00;99.90
19152;DHT22;9708;53.114;9.388;2022-09-25T07:47:18;13.10;99.90
19152;DHT22;9708;53.114;9.388;2022-09-25T07:49:46;13.10;99.90
19152;DHT22;9708;53.114;9.388;2022-09-25T07:52:13;13.10;99.90
19152;DHT22;9708;53.114;9.388;2022-09-25T07:54:40;13.20;99.90
19152;DHT22;9708;53.114;9.388;2022-09-25T07:57:07;13.40;99.90
19152;DHT22;9708;53.114;9.388;2022-09-25T07:59:34;13.40;99.90
19152;DHT22;9708;53.114;9.388;2022-09-25T08:02:02;13.50;99.90
19152;DHT22;9708;53.114;9.388;2022-09-25T08:04:29;13.60;99.90
19152;DHT22;9708;53.114;9.388;2022-09-25T08:06:58;13.50;99.90
19152;DHT22;9708;53.114;9.388;2022-09-25T08:09:25;13.60;99.90
19152;DHT22;9708;53.114;9.388;2022-09-25T08:11:52;13.60;99.90
19152;DHT22;9708;53.114;9.388;2022-09-25T08:14:19;13.60;99.90
19152;DHT22;9708;53.114;9.388;2022-09-25T08:16:47;13.70;99.90
19152;DHT22;9708;53.114;9.388;2022-09-25T08:19:14;13.70;99.90
19152;DHT22;9708;53.114;9.388;2022-09-25T08:21:42;13.80;99.90
19152;DHT22;9708;53.114;9.388;2022-09-25T08:24:11;13.70;99.90
19152;DHT22;9708;53.114;9.388;2022-09-25T08:26:37;13.80;99.90
19152;DHT22;9708;53.114;9.388;2022-09-25T08:29:04;13.90;99.90
19152;DHT22;9708;53.114;9.388;2022-09-25T08:31:32;14.00;99.90
19152;DHT22;9708;53.114;9.388;2022-09-25T08:34:00;14.00;99.90
19152;DHT22;9708;53.114;9.388;2022-09-25T08:36:27;14.00;99.90
19152;DHT22;9708;53.114;9.388;2022-09-25T08:38:53;14.10;99.90
19152;DHT22;9708;53.114;9.388;2022-09-25T08:41:25;14.20;99.90
19152;DHT22;9708;53.114;9.388;2022-09-25T08:43:58;14.20;99.90
19152;DHT22;9708;53.114;9.388;2022-09-25T08:46:36;14.20;99.90
19152;DHT22;9708;53.114;9.388;2022-09-25T08:49:24;14.20;99.90
19152;DHT22;9708;53.114;9.388;2022-09-25T08:51:53;14.20;99.90
19152;DHT22;9708;53.114;9.388;2022-09-25T08:54:24;14.20;99.90
19152;DHT22;9708;53.114;9.388;2022-09-25T08:56:56;14.10;99.90
19152;DHT22;9708;53.114;9.388;2022-09-25T08:59:26;14.10;99.90
19152;DHT22;9708;53.114;9.388;2022-09-25T09:01:57;14.10;99.90
19152;DHT22;9708;53.114;9.388;2022-09-25T09:04:28;14.10;99.90
19152;DHT22;9708;53.114;9.388;2022-09-25T09:07:02;13.90;99.90
19152;DHT22;9708;53.114;9.388;2022-09-25T09:09:35;14.00;99.90
19152;DHT22;9708;53.114;9.388;2022-09-25T09:12:08;14.00;99.90
19152;DHT22;9708;53.114;9.388;2022-09-25T09:14:41;14.20;99.90
19152;DHT22;9708;53.114;9.388;2022-09-25T09:17:15;14.20;99.90
19152;DHT22;9708;53.114;9.388;2022-09-25T09:19:46;14.10;99.90
19152;DHT22;9708;53.114;9.388;2022-09-25T09:22:15;14.10;99.90
19152;DHT22;9708;53.114;9.388;2022-09-25T09:24:53;14.10;99.90
19152;DHT22;9708;53.114;9.388;2022-09-25T09:27:44;14.30;99.90
19152;DHT22;9708;53.114;9.388;2022-09-25T09:30:17;14.50;99.90
19152;DHT22;9708;53.114;9.388;2022-09-25T09:32:57;14.30;99.90
19152;DHT22;9708;53.114;9.388;2022-09-25T09:35:35;14.50;99.90
19152;DHT22;9708;53.114;9.388;2022-09-25T09:38:14;14.70;99.90
19152;DHT22;9708;53.114;9.388;2022-09-25T09:40:56;14.70;99.90
19152;DHT22;9708;53.114;9.388;2022-09-25T09:43:35;14.90;99.90
19152;DHT22;9708;53.114;9.388;2022-09-25T09:46:07;15.60;99.90
19152;DHT22;9708;53.114;9.388;2022-09-25T09:48:46;16.40;99.90
19152;DHT22;9708;53.114;9.388;2022-09-25T09:51:17;17.40;99.90
19152;DHT22;9708;53.114;9.388;2022-09-25T09:53:49;18.00;99.90
19152;DHT22;9708;53.114;9.388;2022-09-25T09:56:18;18.10;99.90
19152;DHT22;9708;53.114;9.388;2022-09-25T09:58:50;18.20;99.90
19152;DHT22;9708;53.114;9.388;2022-09-25T10:01:20;18.00;99.90
19152;DHT22;9708;53.114;9.388;2022-09-25T10:04:01;17.70;99.90
19152;DHT22;9708;53.114;9.388;2022-09-25T10:06:32;17.70;99.90
19152;DHT22;9708;53.114;9.388;2022-09-25T10:09:01;17.70;99.90
19152;DHT22;9708;53.114;9.388;2022-09-25T10:11:30;17.70;99.90
19152;DHT22;9708;53.114;9.388;2022-09-25T10:14:02;17.70;99.90
19152;DHT22;9708;53.114;9.388;2022-09-25T10:16:29;17.80;99.90
19152;DHT22;9708;53.114;9.388;2022-09-25T10:18:59;17.70;99.90
19152;DHT22;9708;53.114;9.388;2022-09-25T10:21:30;17.90;99.90
19152;DHT22;9708;53.114;9.388;2022-09-25T10:23:58;17.70;99.90
19152;DHT22;9708;53.114;9.388;2022-09-25T10:26:28;18.00;99.90
19152;DHT22;9708;53.114;9.388;2022-09-25T10:28:56;18.20;99.90
19152;DHT22;9708;53.114;9.388;2022-09-25T10:31:27;18.50;99.90
19152;DHT22;9708;53.114;9.388;2022-09-25T10:34:00;18.80;99.90
19152;DHT22;9708;53.114;9.388;2022-09-25T10:36:36;18.80;99.90
19152;DHT22;9708;53.114;9.388;2022-09-25T10:39:18;18.90;99.90
19152;DHT22;9708;53.114;9.388;2022-09-25T10:41:48;19.10;99.90
19152;DHT22;9708;53.114;9.388;2022-09-25T10:44:22;19.00;99.90
19152;DHT22;9708;53.114;9.388;2022-09-25T10:46:55;19.00;99.90
19152;DHT22;9708;53.114;9.388;2022-09-25T10:49:48;18.70;99.90
19152;DHT22;9708;53.114;9.388;2022-09-25T10:52:39;18.60;99.90
19152;DHT22;9708;53.114;9.388;2022-09-25T10:55:13;18.40;99.90
19152;DHT22;9708;53.114;9.388;2022-09-25T10:57:41;18.50;99.90
19152;DHT22;9708;53.114;9.388;2022-09-25T11:00:19;18.40;99.90
19152;DHT22;9708;53.114;9.388;2022-09-25T11:02:49;18.00;99.90
19152;DHT22;9708;53.114;9.388;2022-09-25T11:05:19;18.00;99.90
19152;DHT22;9708;53.114;9.388;2022-09-25T11:07:48;18.30;99.90
19152;DHT22;9708;53.114;9.388;2022-09-25T11:10:21;18.10;99.90
19152;DHT22;9708;53.114;9.388;2022-09-25T11:12:48;18.30;99.90
19152;DHT22;9708;53.114;9.388;2022-09-25T11:15:17;18.60;99.90
19152;DHT22;9708;53.114;9.388;2022-09-25T11:17:50;18.90;99.90
19152;DHT22;9708;53.114;9.388;2022-09-25T11:20:25;18.90;99.90
19152;DHT22;9708;53.114;9.388;2022-09-25T11:23:14;19.30;99.90
19152;DHT22;9708;53.114;9.388;2022-09-25T11:25:49;19.70;99.90
19152;DHT22;9708;53.114;9.388;2022-09-25T11:28:25;20.50;99.90
19152;DHT22;9708;53.114;9.388;2022-09-25T11:30:56;21.10;99.90
19152;DHT22;9708;53.114;9.388;2022-09-25T11:33:35;21.50;99.90
19152;DHT22;9708;53.114;9.388;2022-09-25T11:36:11;22.20;99.90
19152;DHT22;9708;53.114;9.388;2022-09-25T11:38:45;21.90;99.90
19152;DHT22;9708;53.114;9.388;2022-09-25T11:41:31;21.50;99.90
19152;DHT22;9708;53.114;9.388;2022-09-25T11:44:11;20.40;99.90
19152;DHT22;9708;53.114;9.388;2022-09-25T11:46:43;19.40;99.90
19152;DHT22;9708;53.114;9.388;2022-09-25T11:49:19;18.90;99.90
19152;DHT22;9708;53.114;9.388;2022-09-25T11:52:19;18.70;99.90
19152;DHT22;9708;53.114;9.388;2022-09-25T11:54:58;18.80;99.90
19152;DHT22;9708;53.114;9.388;2022-09-25T11:57:35;18.80;99.90
19152;DHT22;9708;53.114;9.388;2022-09-25T12:00:07;18.70;99.90
19152;DHT22;9708;53.114;9.388;2022-09-25T12:02:48;18.70;99.90
19152;DHT22;9708;53.114;9.388;2022-09-25T12:05:37;18.80;99.90
19152;DHT22;9708;53.114;9.388;2022-09-25T12:08:23;19.00;99.90
19152;DHT22;9708;53.114;9.388;2022-09-25T12:10:56;19.20;99.90
19152;DHT22;9708;53.114;9.388;2022-09-25T12:13:34;19.20;99.90
19152;DHT22;9708;53.114;9.388;2022-09-25T12:16:11;19.00;99.90
19152;DHT22;9708;53.114;9.388;2022-09-25T12:18:50;19.20;99.90
19152;DHT22;9708;53.114;9.388;2022-09-25T12:21:23;19.60;99.90
19152;DHT22;9708;53.114;9.388;2022-09-25T12:24:03;19.20;99.90
19152;DHT22;9708;53.114;9.388;2022-09-25T12:26:39;19.60;99.90
19152;DHT22;9708;53.114;9.388;2022-09-25T12:29:15;19.60;99.90
19152;DHT22;9708;53.114;9.388;2022-09-25T12:31:56;19.60;99.90
19152;DHT22;9708;53.114;9.388;2022-09-25T12:34:35;19.80;99.90
19152;DHT22;9708;53.114;9.388;2022-09-25T12:37:16;19.80;99.90
19152;DHT22;9708;53.114;9.388;2022-09-25T12:39:50;19.80;99.90
19152;DHT22;9708;53.114;9.388;2022-09-25T12:42:20;19.40;99.90
19152;DHT22;9708;53.114;9.388;2022-09-25T12:44:52;19.00;99.90
19152;DHT22;9708;53.114;9.388;2022-09-25T12:47:24;18.70;99.90
19152;DHT22;9708;53.114;9.388;2022-09-25T12:49:58;18.10;99.90
19152;DHT22;9708;53.114;9.388;2022-09-25T12:52:32;17.70;99.90
19152;DHT22;9708;53.114;9.388;2022-09-25T12:55:02;18.20;99.90
19152;DHT22;9708;53.114;9.388;2022-09-25T12:57:34;18.20;99.90
19152;DHT22;9708;53.114;9.388;2022-09-25T13:00:06;18.10;99.90
19152;DHT22;9708;53.114;9.388;2022-09-25T13:02:40;17.90;99.90
19152;DHT22;9708;53.114;9.388;2022-09-25T13:05:12;18.00;99.90
19152;DHT22;9708;53.114;9.388;2022-09-25T13:07:46;17.80;99.90
19152;DHT22;9708;53.114;9.388;2022-09-25T13:10:26;17.60;99.90
19152;DHT22;9708;53.114;9.388;2022-09-25T13:12:56;17.60;99.90
19152;DHT22;9708;53.114;9.388;2022-09-25T13:15:27;17.40;99.90
19152;DHT22;9708;53.114;9.388;2022-09-25T13:17:55;17.50;99.90
19152;DHT22;9708;53.114;9.388;2022-09-25T13:20:46;17.60;99.90
19152;DHT22;9708;53.114;9.388;2022-09-25T13:23:17;17.50;99.90
19152;DHT22;9708;53.114;9.388;2022-09-25T13:25:46;17.30;99.90
19152;DHT22;9708;53.114;9.388;2022-09-25T13:28:21;17.20;99.90
19152;DHT22;9708;53.114;9.388;2022-09-25T13:31:04;17.00;99.90
19152;DHT22;9708;53.114;9.388;2022-09-25T13:33:44;17.00;99.90
19152;DHT22;9708;53.114;9.388;2022-09-25T13:39:04;16.70;99.90
19152;DHT22;9708;53.114;9.388;2022-09-25T13:41:52;16.70;99.90
19152;DHT22;9708;53.114;9.388;2022-09-25T13:44:37;16.60;99.90
19152;DHT22;9708;53.114;9.388;2022-09-25T13:47:47;16.50;99.90
19152;DHT22;9708;53.114;9.388;2022-09-25T13:50:22;16.50;99.90
19152;DHT22;9708;53.114;9.388;2022-09-25T13:52:59;16.50;99.90
19152;DHT22;9708;53.114;9.388;2022-09-25T13:55:42;16.50;99.90
19152;DHT22;9708;53.114;9.388;2022-09-25T13:58:18;16.60;99.90
19152;DHT22;9708;53.114;9.388;2022-09-25T14:00:53;16.70;99.90
19152;DHT22;9708;53.114;9.388;2022-09-25T14:03:35;16.80;99.90
19152;DHT22;9708;53.114;9.388;2022-09-25T14:06:04;16.80;99.90
19152;DHT22;9708;53.114;9.388;2022-09-25T14:08:39;16.90;99.90
19152;DHT22;9708;53.114;9.388;2022-09-25T14:11:11;17.10;99.90
19152;DHT22;9708;53.114;9.388;2022-09-25T14:13:39;17.10;99.90
19152;DHT22;9708;53.114;9.388;2022-09-25T14:16:18;17.10;99.90
19152;DHT22;9708;53.114;9.388;2022-09-25T14:18:47;17.10;99.90
19152;DHT22;9708;53.114;9.388;2022-09-25T14:21:14;17.00;99.90
19152;DHT22;9708;53.114;9.388;2022-09-25T14:23:48;17.00;99.90
19152;DHT22;9708;53.114;9.388;2022-09-25T14:26:20;17.00;99.90
19152;DHT22;9708;53.114;9.388;2022-09-25T14:28:48;17.00;99.90
19152;DHT22;9708;53.114;9.388;2022-09-25T14:31:28;17.00;99.90
19152;DHT22;9708;53.114;9.388;2022-09-25T14:37:11;16.90;99.90
19152;DHT22;9708;53.114;9.388;2022-09-25T14:39:46;16.80;99.90
19152;DHT22;9708;53.114;9.388;2022-09-25T14:42:41;16.80;99.90
19152;DHT22;9708;53.114;9.388;2022-09-25T14:45:30;16.90;99.90
19152;DHT22;9708;53.114;9.388;2022-09-25T14:48:04;16.90;99.90
19152;DHT22;9708;53.114;9.388;2022-09-25T14:50:34;17.00;99.90
19152;DHT22;9708;53.114;9.388;2022-09-25T14:53:04;17.00;99.90
19152;DHT22;9708;53.114;9.388;2022-09-25T14:55:35;16.90;99.90
19152;DHT22;9708;53.114;9.388;2022-09-25T14:58:06;16.90;99.90
19152;DHT22;9708;53.114;9.388;2022-09-25T15:00:35;16.80;99.90
19152;DHT22;9708;53.114;9.388;2022-09-25T15:03:10;16.70;99.90
19152;DHT22;9708;53.114;9.388;2022-09-25T15:05:44;16.70;99.90
19152;DHT22;9708;53.114;9.388;2022-09-25T15:08:19;16.70;99.90
19152;DHT22;9708;53.114;9.388;2022-09-25T15:10:47;16.50;99.90
19152;DHT22;9708;53.114;9.388;2022-09-25T15:13:16;16.40;99.90
19152;DHT22;9708;53.114;9.388;2022-09-25T15:15:46;16.50;99.90
19152;DHT22;9708;53.114;9.388;2022-09-25T15:18:27;16.60;99.90
19152;DHT22;9708;53.114;9.388;2022-09-25T15:20:55;16.50;99.90
19152;DHT22;9708;53.114;9.388;2022-09-25T15:23:22;16.40;99.90
19152;DHT22;9708;53.114;9.388;2022-09-25T15:25:52;16.30;99.90
19152;DHT22;9708;53.114;9.388;2022-09-25T15:28:22;16.30;99.90
19152;DHT22;9708;53.114;9.388;2022-09-25T15:30:55;16.20;99.90
19152;DHT22;9708;53.114;9.388;2022-09-25T15:33:24;16.10;99.90
19152;DHT22;9708;53.114;9.388;2022-09-25T15:35:54;16.10;99.90
19152;DHT22;9708;53.114;9.388;2022-09-25T15:38:27;16.00;99.90
19152;DHT22;9708;53.114;9.388;2022-09-25T15:40:55;16.00;99.90
19152;DHT22;9708;53.114;9.388;2022-09-25T15:43:24;16.00;99.90
19152;DHT22;9708;53.114;9.388;2022-09-25T15:45:55;16.00;99.90
19152;DHT22;9708;53.114;9.388;2022-09-25T15:48:26;16.00;99.90
19152;DHT22;9708;53.114;9.388;2022-09-25T15:50:56;16.00;99.90
19152;DHT22;9708;53.114;9.388;2022-09-25T15:53:27;16.00;99.90
19152;DHT22;9708;53.114;9.388;2022-09-25T15:56:11;15.90;99.90
19152;DHT22;9708;53.114;9.388;2022-09-25T15:58:44;15.80;99.90
19152;DHT22;9708;53.114;9.388;2022-09-25T16:01:13;15.70;99.90
19152;DHT22;9708;53.114;9.388;2022-09-25T16:03:59;15.70;99.90
19152;DHT22;9708;53.114;9.388;2022-09-25T16:06:44;15.70;99.90
19152;DHT22;9708;53.114;9.388;2022-09-25T16:09:23;15.70;99.90
19152;DHT22;9708;53.114;9.388;2022-09-25T16:12:00;15.60;99.90
19152;DHT22;9708;53.114;9.388;2022-09-25T16:14:37;15.60;99.90
19152;DHT22;9708;53.114;9.388;2022-09-25T16:17:14;15.50;99.90
19152;DHT22;9708;53.114;9.388;2022-09-25T16:19:42;15.50;99.90